Time;durP1;ratioP1;P1;durP2;ratioP2;P2;SDS_P1;SDS_P2;PMS_P1;PMS_P2;Temp;Humidity;BMP_temperature;BMP_pressure;BME280_temperature;BME280_humidity;BME280_pressure;Samples;Min_cycle;Max_cycle;Signal;HPM_P1;HPM_P2
2022/12/06 00:01:07;;;;;;;8.53;5.17;;;;;;;7.00;100.00;95111.16;5092429;28;20249;-55
2022/12/06 00:03:33;;;;;;;8.67;5.87;;;;;;;6.99;100.00;95098.63;5092420;28;20188;-54
2022/12/06 00:06:05;;;;;;;6.93;4.43;;;;;;;7.16;100.00;95123.63;5092153;28;20316;-54
2022/12/06 00:08:38;;;;;;;7.47;5.37;;;;;;;7.11;100.00;95121.41;5092230;28;20187;-56
2022/12/06 00:11:13;;;;;;;6.67;4.80;;;;;;;7.16;100.00;95128.69;5092111;28;20216;-54
2022/12/06 00:13:39;;;;;;;7.07;4.70;;;;;;;7.14;100.00;95133.84;5092071;28;20192;-55
2022/12/06 00:16:08;;;;;;;7.73;4.20;;;;;;;6.92;100.00;95135.31;5091704;28;20575;-55
2022/12/06 00:18:35;;;;;;;10.53;5.43;;;;;;;6.75;100.00;95109.38;5073759;28;20195;-56
2022/12/06 00:21:30;;;;;;;7.40;4.17;;;;;;;6.71;100.00;95102.88;5090913;28;20233;-53
2022/12/06 00:24:02;;;;;;;8.60;4.43;;;;;;;6.61;100.00;95090.91;5080975;28;20587;-56
2022/12/06 00:26:29;;;;;;;5.57;4.27;;;;;;;6.59;100.00;95096.06;5091937;28;20184;-56
2022/12/06 00:28:57;;;;;;;7.33;3.90;;;;;;;6.59;100.00;95096.06;5091640;28;20179;-53
2022/12/06 00:31:25;;;;;;;8.07;4.17;;;;;;;6.56;100.00;95101.34;5091780;28;20269;-54
2022/12/06 00:33:51;;;;;;;8.13;4.63;;;;;;;6.69;100.00;95111.47;5091751;28;20310;-56
2022/12/06 00:36:19;;;;;;;5.60;3.87;;;;;;;6.61;100.00;95099.31;5091677;28;20574;-54
2022/12/06 00:38:44;;;;;;;7.20;4.30;;;;;;;6.66;100.00;95111.66;5091654;28;20488;-54
2022/12/06 00:41:19;;;;;;;7.30;4.30;;;;;;;6.59;100.00;95095.25;5091726;28;20176;-54
2022/12/06 00:43:45;;;;;;;5.67;3.90;;;;;;;6.63;100.00;95106.78;5091370;28;20193;-57
2022/12/06 00:46:16;;;;;;;7.37;3.70;;;;;;;6.68;100.00;95118.25;5091521;28;20655;-54
2022/12/06 00:48:42;;;;;;;7.37;4.13;;;;;;;6.79;100.00;95123.44;5091702;28;20180;-55
2022/12/06 00:51:08;;;;;;;5.93;4.10;;;;;;;6.74;100.00;95110.28;5091439;28;20231;-54
2022/12/06 00:53:33;;;;;;;6.30;4.20;;;;;;;6.71;100.00;95080.16;5091608;28;20267;-53
2022/12/06 00:55:58;;;;;;;7.67;4.87;;;;;;;6.69;100.00;95086.19;5091241;28;20216;-54
2022/12/06 00:58:24;;;;;;;8.77;4.70;;;;;;;6.80;100.00;95091.41;5091587;28;20241;-53
2022/12/06 01:00:49;;;;;;;7.33;4.73;;;;;;;6.92;100.00;95100.75;5091838;28;20218;-55
2022/12/06 01:03:15;;;;;;;6.63;4.57;;;;;;;6.81;100.00;95087.97;5091396;28;20233;-54
2022/12/06 01:05:42;;;;;;;6.70;4.70;;;;;;;6.94;100.00;95095.56;5091577;28;20212;-53
2022/12/06 01:08:08;;;;;;;8.20;5.03;;;;;;;7.07;100.00;95112.38;5091274;28;20210;-55
2022/12/06 01:10:35;;;;;;;7.20;4.53;;;;;;;7.05;100.00;95111.66;5091481;28;20246;-55
2022/12/06 01:13:01;;;;;;;6.80;4.60;;;;;;;7.12;100.00;95112.09;5091367;28;20271;-58
2022/12/06 01:15:27;;;;;;;6.57;4.30;;;;;;;7.15;100.00;95112.72;5091439;28;20212;-56
2022/12/06 01:17:53;;;;;;;5.70;4.07;;;;;;;7.06;100.00;95128.47;5073083;28;20188;-54
2022/12/06 01:20:18;;;;;;;5.33;4.00;;;;;;;7.06;100.00;95120.06;5091190;28;20214;-54
2022/12/06 01:22:44;;;;;;;6.53;4.40;;;;;;;6.95;100.00;95104.78;5091242;28;20191;-56
2022/12/06 01:25:09;;;;;;;9.67;3.80;;;;;;;7.01;100.00;95102.66;5091223;28;20303;-56
2022/12/06 01:27:34;;;;;;;4.20;3.27;;;;;;;7.04;100.00;95089.84;5091147;28;20187;-56
2022/12/06 01:30:00;;;;;;;8.80;5.17;;;;;;;6.97;100.00;95090.34;5091191;28;20291;-56
2022/12/06 01:32:28;;;;;;;31.60;9.37;;;;;;;7.07;100.00;95098.97;5092231;28;20184;-57
2022/12/06 01:34:53;;;;;;;413.07;108.50;;;;;;;7.25;100.00;95130.66;5094606;28;20298;-56
2022/12/06 01:37:19;;;;;;;5.87;3.80;;;;;;;7.26;100.00;95117.09;5094478;28;20270;-56
2022/12/06 01:39:44;;;;;;;7.30;4.27;;;;;;;7.08;100.00;95076.09;5094532;28;20207;-57
2022/12/06 01:42:11;;;;;;;8.00;4.73;;;;;;;7.13;100.00;95075.81;5094673;28;20738;-55
2022/12/06 01:44:43;;;;;;;8.33;5.30;;;;;;;6.94;100.00;95048.38;5094156;28;20210;-55
2022/12/06 01:47:16;;;;;;;5.73;3.97;;;;;;;6.91;100.00;95037.66;5094413;28;20199;-54
2022/12/06 01:49:46;;;;;;;7.73;4.83;;;;;;;6.96;100.00;95045.75;5094687;28;20215;-54
2022/12/06 01:52:12;;;;;;;8.63;4.37;;;;;;;7.11;100.00;95062.47;5094317;28;20553;-55
2022/12/06 01:54:39;;;;;;;6.30;4.57;;;;;;;6.83;100.00;95022.19;5094281;28;20207;-54
2022/12/06 01:57:07;;;;;;;5.77;3.90;;;;;;;6.85;100.00;95018.63;5094311;28;20184;-56
2022/12/06 01:59:33;;;;;;;5.57;3.70;;;;;;;6.80;100.00;95038.34;5094459;28;20642;-55
2022/12/06 02:01:59;;;;;;;6.67;4.13;;;;;;;6.92;100.00;95070.41;5094134;28;20187;-56
2022/12/06 02:04:25;;;;;;;6.27;4.23;;;;;;;7.05;100.00;95078.03;5094083;28;20653;-54
2022/12/06 02:06:53;;;;;;;5.53;3.63;;;;;;;6.99;100.00;95076.69;5094203;28;20188;-55
2022/12/06 02:09:19;;;;;;;5.60;3.80;;;;;;;7.05;100.00;95072.97;5094151;28;20211;-55
2022/12/06 02:11:46;;;;;;;5.73;3.80;;;;;;;7.04;100.00;95086.50;5094046;28;20196;-56
2022/12/06 02:14:16;;;;;;;4.93;3.50;;;;;;;7.01;100.00;95079.13;5093846;28;20243;-56
2022/12/06 02:17:24;;;;;;;5.90;3.73;;;;;;;6.98;100.00;95075.06;5093911;28;20262;-54
2022/12/06 02:19:52;;;;;;;5.40;3.67;;;;;;;7.05;100.00;95072.97;5094206;28;20215;-56
2022/12/06 02:22:32;;;;;;;7.30;4.67;;;;;;;6.79;100.00;95031.66;5093767;28;20180;-56
2022/12/06 02:25:03;;;;;;;4.63;3.50;;;;;;;6.87;100.00;95028.66;5093854;28;20258;-56
2022/12/06 02:27:57;;;;;;;5.30;3.90;;;;;;;6.86;100.00;95042.19;5093781;28;20668;-56
2022/12/06 02:30:46;;;;;;;5.40;4.13;;;;;;;6.87;100.00;95046.34;5052153;28;20235;-54
2022/12/06 02:33:22;;;;;;;4.87;3.43;;;;;;;6.84;100.00;95038.97;5093748;28;20234;-54
2022/12/06 02:35:51;;;;;;;4.03;3.20;;;;;;;6.82;100.00;95039.06;5093549;28;20290;-53
2022/12/06 02:38:30;;;;;;;3.83;3.13;;;;;;;6.81;100.00;95029.06;5093580;28;20257;-53
2022/12/06 02:41:00;;;;;;;4.37;3.17;;;;;;;6.72;100.00;95008.53;5093635;28;20208;-54
2022/12/06 02:43:39;;;;;;;5.07;3.40;;;;;;;6.66;100.00;95008.09;5092869;28;20188;-55
2022/12/06 02:46:07;;;;;;;4.13;3.30;;;;;;;6.79;100.00;95040.06;5093434;28;20219;-54
2022/12/06 02:48:33;;;;;;;4.70;2.80;;;;;;;6.73;100.00;95042.97;5093570;28;20553;-57
2022/12/06 02:51:04;;;;;;;3.40;2.87;;;;;;;6.68;100.00;95046.72;5093121;28;20212;-56
2022/12/06 02:53:33;;;;;;;8.43;3.83;;;;;;;6.59;100.00;95024.53;5093280;28;20204;-54
2022/12/06 02:55:59;;;;;;;5.30;3.23;;;;;;;6.54;100.00;95019.81;5093653;28;20650;-56
2022/12/06 02:58:25;;;;;;;5.93;4.17;;;;;;;6.53;100.00;95013.13;5093316;28;20257;-55
2022/12/06 03:01:01;;;;;;;5.17;3.30;;;;;;;6.55;100.00;95023.94;5093474;28;20212;-54
2022/12/06 03:03:53;;;;;;;7.70;3.70;;;;;;;6.58;100.00;94995.97;5093368;28;20187;-55
2022/12/06 03:06:39;;;;;;;5.23;3.67;;;;;;;6.70;100.00;95007.81;5048172;28;20211;-54
2022/12/06 03:09:04;;;;;;;6.77;3.90;;;;;;;6.71;100.00;95013.66;5093026;28;20235;-55
2022/12/06 03:12:01;;;;;;;6.30;3.17;;;;;;;6.72;100.00;95003.47;5093126;28;20232;-54
2022/12/06 03:14:34;;;;;;;6.13;3.10;;;;;;;6.91;100.00;95028.34;5092948;28;20220;-56
2022/12/06 03:17:08;;;;;;;20.83;8.27;;;;;;;7.04;100.00;95056.16;5092924;28;20184;-55
2022/12/06 03:19:36;;;;;;;6.00;3.40;;;;;;;6.88;100.00;95060.59;5093162;28;20211;-54
2022/12/06 03:22:19;;;;;;;5.67;3.33;;;;;;;6.66;100.00;95038.41;5058316;28;20283;-54
2022/12/06 03:24:46;;;;;;;5.40;3.60;;;;;;;6.58;100.00;95023.75;5092992;28;20223;-56
2022/12/06 03:27:16;;;;;;;4.67;3.50;;;;;;;6.47;100.00;94995.00;5092995;28;20649;-55
2022/12/06 03:29:51;;;;;;;6.77;3.50;;;;;;;6.53;100.00;95008.06;5092844;28;20200;-55
2022/12/06 03:32:21;;;;;;;6.43;3.40;;;;;;;6.59;100.00;95005.16;5092979;28;20297;-56
2022/12/06 03:34:51;;;;;;;5.90;4.13;;;;;;;6.65;100.00;95003.94;5092597;28;20215;-54
2022/12/06 03:37:20;;;;;;;6.90;3.50;;;;;;;6.58;100.00;94982.53;5092861;28;20252;-56
2022/12/06 03:39:53;;;;;;;6.23;4.17;;;;;;;6.33;100.00;94937.00;5092803;28;20358;-54
2022/12/06 03:42:19;;;;;;;5.97;3.90;;;;;;;6.70;100.00;94971.63;5092716;28;20266;-58
2022/12/06 03:44:46;;;;;;;7.30;3.57;;;;;;;6.68;100.00;94961.63;5092926;28;20226;-55
2022/12/06 03:47:39;;;;;;;8.47;4.30;;;;;;;6.68;100.00;94964.16;5092667;28;20180;-54
2022/12/06 03:50:14;;;;;;;6.97;3.33;;;;;;;6.71;100.00;94979.09;5078113;28;20244;-53
2022/12/06 03:52:39;;;;;;;10.23;4.47;;;;;;;6.78;100.00;94972.78;5092543;28;20191;-55
2022/12/06 03:55:05;;;;;;;18.17;8.07;;;;;;;6.90;100.00;94972.88;5092050;28;20215;-56
2022/12/06 03:57:31;;;;;;;170.27;52.10;;;;;;;6.87;100.00;94999.13;5092254;28;20195;-55
2022/12/06 03:59:56;;;;;;;7.30;4.07;;;;;;;6.75;100.00;94978.00;5092100;28;20303;-55
2022/12/06 04:02:22;;;;;;;6.50;4.00;;;;;;;6.45;100.00;94926.94;5092210;28;20223;-55
2022/12/06 04:04:48;;;;;;;6.33;4.00;;;;;;;6.60;100.00;94958.81;5092310;28;20281;-55
2022/12/06 04:07:14;;;;;;;4.93;3.63;;;;;;;6.61;100.00;94944.44;5092363;28;20204;-54
2022/12/06 04:09:51;;;;;;;4.70;2.97;;;;;;;6.55;100.00;94953.22;5092419;28;20200;-57
2022/12/06 04:15:06;;;;;;;7.27;4.27;;;;;;;6.61;100.00;94946.97;5092511;28;20250;-53
2022/12/06 04:20:16;;;;;;;6.33;4.17;;;;;;;6.59;100.00;94954.66;5092666;28;20261;-56
2022/12/06 04:25:25;;;;;;;6.77;4.00;;;;;;;6.72;100.00;94965.59;5092175;28;20218;-56
2022/12/06 04:38:47;;;;;;;8.97;5.17;;;;;;;6.74;100.00;94994.09;5091597;28;20642;-55
2022/12/06 04:43:40;;;;;;;9.97;3.97;;;;;;;6.91;100.00;95007.34;5091652;28;20211;-55
2022/12/06 04:44:04;;;;;;;8.23;4.13;;;;;;;6.90;100.00;95015.81;5091364;28;20180;-56
2022/12/06 04:46:30;;;;;;;8.17;4.30;;;;;;;6.80;100.00;95000.44;5091425;28;20188;-57
2022/12/06 04:48:55;;;;;;;6.63;4.57;;;;;;;6.82;100.00;94993.59;5091669;28;20279;-54
2022/12/06 04:51:21;;;;;;;7.70;4.40;;;;;;;6.86;100.00;95011.88;5091409;28;20571;-54
2022/12/06 04:53:47;;;;;;;7.87;4.30;;;;;;;6.76;100.00;94988.94;5091395;28;20186;-53
2022/12/06 04:56:12;;;;;;;9.33;4.53;;;;;;;6.92;100.00;94998.84;5091397;28;20645;-54
2022/12/06 04:58:38;;;;;;;6.53;4.50;;;;;;;6.98;100.00;95006.03;5091335;28;20188;-56
2022/12/06 05:01:03;;;;;;;9.37;3.97;;;;;;;6.96;100.00;94990.16;5091452;28;20601;-56
2022/12/06 05:03:29;;;;;;;9.40;4.37;;;;;;;6.88;100.00;94987.31;5073355;28;20552;-54
2022/12/06 05:05:54;;;;;;;6.60;4.00;;;;;;;6.98;100.00;95003.50;5091192;28;20311;-54
2022/12/06 05:08:19;;;;;;;8.87;4.47;;;;;;;7.00;100.00;95009.25;5072632;28;20271;-54
2022/12/06 05:10:47;;;;;;;8.27;4.07;;;;;;;6.85;100.00;94990.06;5091552;28;20234;-56
2022/12/06 05:13:13;;;;;;;7.87;4.40;;;;;;;6.73;100.00;94989.09;5073015;28;20172;-57
2022/12/06 05:15:38;;;;;;;5.50;3.80;;;;;;;6.78;100.00;94982.88;5091479;28;20565;-56
2022/12/06 05:18:04;;;;;;;6.87;3.90;;;;;;;6.86;100.00;95001.75;5091271;28;20214;-57
2022/12/06 05:20:29;;;;;;;5.03;3.60;;;;;;;6.91;100.00;95004.81;5091445;28;20239;-54
2022/12/06 05:22:54;;;;;;;4.63;3.53;;;;;;;7.03;100.00;94981.28;5091244;28;20190;-54
2022/12/06 05:25:20;;;;;;;6.90;4.00;;;;;;;7.20;100.00;95003.72;5091055;28;20223;-56
2022/12/06 05:27:45;;;;;;;7.67;4.93;;;;;;;7.35;100.00;94891.44;5091133;28;20329;-54
2022/12/06 05:30:11;;;;;;;6.80;3.63;;;;;;;7.92;100.00;94932.16;5091019;28;20211;-56
2022/12/06 05:32:38;;;;;;;7.27;3.93;;;;;;;8.61;100.00;94942.34;5091095;28;20259;-59
2022/12/06 05:35:05;;;;;;;10.07;4.87;;;;;;;9.81;100.00;94932.38;5091216;28;20241;-59
2022/12/06 05:37:30;;;;;;;12.27;4.57;;;;;;;9.23;100.00;95049.34;5090932;28;20187;-57
2022/12/06 05:39:55;;;;;;;9.20;3.67;;;;;;;8.75;100.00;95073.13;5091126;28;20576;-62
2022/12/06 05:42:21;;;;;;;5.43;3.97;;;;;;;8.38;100.00;95070.66;5091026;28;20230;-59
2022/12/06 05:44:46;;;;;;;8.10;3.77;;;;;;;7.94;100.00;95056.88;5090932;28;20299;-58
2022/12/06 05:47:12;;;;;;;5.73;3.43;;;;;;;7.65;100.00;95018.34;5090807;28;20176;-61
2022/12/06 05:49:37;;;;;;;7.77;4.10;;;;;;;7.53;100.00;95009.06;5090690;28;20212;-61
2022/12/06 05:52:02;;;;;;;7.20;3.90;;;;;;;7.35;100.00;94970.63;5090811;28;20192;-60
2022/12/06 05:54:28;;;;;;;9.07;4.37;;;;;;;7.38;100.00;94972.16;5090740;28;20545;-58
2022/12/06 05:56:54;;;;;;;9.17;5.07;;;;;;;7.12;100.00;94948.59;5090692;28;20192;-57
2022/12/06 05:59:19;;;;;;;6.17;4.13;;;;;;;7.14;100.00;94928.28;5090578;28;20211;-60
2022/12/06 06:01:45;;;;;;;7.10;4.33;;;;;;;7.17;100.00;94933.13;5090442;28;20249;-60
2022/12/06 06:04:10;;;;;;;8.17;4.10;;;;;;;7.18;100.00;94947.38;5090380;28;20212;-61
2022/12/06 06:06:35;;;;;;;11.03;5.37;;;;;;;7.11;100.00;94941.13;5090551;28;20211;-60
2022/12/06 06:09:01;;;;;;;11.40;5.43;;;;;;;7.05;100.00;94933.97;5090270;28;20715;-60
2022/12/06 06:11:26;;;;;;;10.00;6.60;;;;;;;7.06;100.00;94948.19;5072296;28;20279;-60
2022/12/06 06:13:53;;;;;;;11.40;6.10;;;;;;;7.14;100.00;94956.09;5090185;28;20184;-60
2022/12/06 06:16:19;;;;;;;28.33;11.33;;;;;;;8.84;100.00;94931.34;5090206;28;20609;-59
2022/12/06 06:18:45;;;;;;;14.53;7.60;;;;;;;8.20;100.00;94949.56;5091690;28;20276;-58
2022/12/06 06:21:10;;;;;;;17.93;6.57;;;;;;;7.93;100.00;95024.88;5093821;28;20248;-59
2022/12/06 06:23:54;;;;;;;9.37;6.20;;;;;;;7.78;100.00;95029.25;5093872;28;20654;-59
2022/12/06 06:26:20;;;;;;;14.10;6.43;;;;;;;7.41;100.00;94969.41;5093663;28;20215;-58
2022/12/06 06:28:46;;;;;;;15.37;6.93;;;;;;;7.30;100.00;94972.66;5093671;28;20187;-59
2022/12/06 06:31:11;;;;;;;10.43;5.30;;;;;;;7.16;100.00;94970.25;5093696;28;20271;-59
2022/12/06 06:33:37;;;;;;;7.27;4.40;;;;;;;7.05;100.00;94987.03;5093861;28;20223;-58
2022/12/06 06:36:02;;;;;;;53.30;16.77;;;;;;;7.08;100.00;95001.97;5093577;28;20228;-58
2022/12/06 06:38:28;;;;;;;9.67;4.77;;;;;;;7.04;100.00;95000.56;5093779;28;20219;-60
2022/12/06 06:40:53;;;;;;;10.30;5.50;;;;;;;7.05;100.00;94982.75;5093781;28;20216;-60
2022/12/06 06:43:19;;;;;;;9.30;4.97;;;;;;;7.08;100.00;94995.22;5093710;28;20188;-58
2022/12/06 06:45:51;;;;;;;9.73;4.67;;;;;;;7.00;100.00;94994.91;5075426;28;20677;-59
2022/12/06 06:48:16;;;;;;;7.60;4.57;;;;;;;6.93;100.00;95000.47;5093514;28;20184;-59
2022/12/06 06:50:41;;;;;;;7.97;4.23;;;;;;;7.03;100.00;94971.94;5093652;28;20218;-58
2022/12/06 06:53:07;;;;;;;10.03;5.27;;;;;;;7.05;100.00;94961.75;5093432;28;20187;-60
2022/12/06 06:55:34;;;;;;;10.37;4.47;;;;;;;7.06;100.00;94948.19;5093682;28;20212;-60
2022/12/06 06:58:00;;;;;;;10.83;4.90;;;;;;;6.92;100.00;94961.75;5093232;28;20220;-57
2022/12/06 07:00:25;;;;;;;11.80;4.10;;;;;;;6.99;100.00;94955.38;5093353;28;20269;-57
2022/12/06 07:02:50;;;;;;;8.07;4.80;;;;;;;7.08;100.00;94938.78;5093350;28;20585;-60
2022/12/06 07:05:16;;;;;;;7.67;4.77;;;;;;;7.16;100.00;94924.75;5093569;28;20212;-61
2022/12/06 07:07:41;;;;;;;8.30;4.87;;;;;;;7.33;100.00;94933.72;5093308;28;20654;-58
2022/12/06 07:10:07;;;;;;;8.73;5.03;;;;;;;7.36;100.00;94946.16;5093371;28;20220;-59
2022/12/06 07:12:33;;;;;;;9.13;4.50;;;;;;;7.25;100.00;94963.78;5093387;28;20176;-60
2022/12/06 07:14:58;;;;;;;7.70;4.33;;;;;;;7.31;100.00;94945.66;5093236;28;20212;-58
2022/12/06 07:17:24;;;;;;;11.40;4.70;;;;;;;7.41;100.00;94975.28;5093280;28;20576;-60
2022/12/06 07:19:49;;;;;;;10.80;4.83;;;;;;;7.24;100.00;94979.84;5093024;28;20215;-59
2022/12/06 07:22:15;;;;;;;10.90;5.27;;;;;;;7.23;100.00;94994.19;5093369;28;20633;-59
2022/12/06 07:24:40;;;;;;;7.90;4.77;;;;;;;7.19;100.00;94997.06;5074754;28;20311;-58
2022/12/06 07:27:06;;;;;;;6.87;3.90;;;;;;;7.08;100.00;94991.88;5093268;28;20187;-60
2022/12/06 07:29:31;;;;;;;9.87;4.83;;;;;;;7.12;100.00;94957.91;5074408;28;20288;-58
2022/12/06 07:31:58;;;;;;;6.57;3.60;;;;;;;7.18;100.00;95008.06;5074615;28;20199;-59
2022/12/06 07:34:23;;;;;;;8.13;4.53;;;;;;;7.30;100.00;94971.84;5092873;28;20212;-58
2022/12/06 07:36:48;;;;;;;9.17;4.83;;;;;;;7.42;100.00;95002.19;5092888;28;20199;-57
2022/12/06 07:39:14;;;;;;;11.33;5.13;;;;;;;7.58;100.00;94981.72;5092724;28;20203;-58
2022/12/06 07:47:07;;;;;;;11.17;6.27;;;;;;;7.43;100.00;94968.38;5092848;28;20226;-57
2022/12/06 07:49:32;;;;;;;13.53;6.43;;;;;;;7.56;100.00;94963.31;5092738;28;20239;-59
2022/12/06 07:51:58;;;;;;;13.13;6.30;;;;;;;7.62;100.00;94955.31;5092982;28;20199;-59
2022/12/06 07:54:23;;;;;;;16.27;7.40;;;;;;;7.64;100.00;94961.06;5092780;28;20265;-60
2022/12/06 07:56:49;;;;;;;15.80;6.37;;;;;;;7.80;100.00;94997.06;5092385;28;20259;-60
2022/12/06 07:59:15;;;;;;;15.40;9.20;;;;;;;7.80;100.00;94984.41;5092105;28;20215;-59
2022/12/06 08:01:40;;;;;;;16.47;7.80;;;;;;;7.90;100.00;94969.41;5092325;28;20309;-59
2022/12/06 08:04:05;;;;;;;15.00;6.93;;;;;;;7.92;100.00;94986.09;5092298;28;20700;-58
2022/12/06 08:06:32;;;;;;;12.67;7.53;;;;;;;8.00;100.00;95031.94;5074160;28;20569;-58
2022/12/06 08:08:58;;;;;;;10.13;6.13;;;;;;;8.01;100.00;95018.38;5092159;28;20192;-58
2022/12/06 08:11:23;;;;;;;14.13;6.93;;;;;;;8.11;100.00;95014.31;5092132;28;20190;-58
2022/12/06 08:13:49;;;;;;;10.07;5.50;;;;;;;7.99;100.00;94979.72;5092013;28;20192;-57
2022/12/06 08:16:14;;;;;;;11.37;5.97;;;;;;;7.94;100.00;94974.16;5092161;28;20191;-57
2022/12/06 08:18:41;;;;;;;11.00;6.10;;;;;;;8.04;100.00;95022.44;5092077;28;20184;-59
2022/12/06 08:21:07;;;;;;;10.73;6.93;;;;;;;7.97;100.00;94995.91;5092151;28;20630;-59
2022/12/06 08:23:34;;;;;;;10.70;6.37;;;;;;;8.07;100.00;94926.81;5091982;28;20306;-57
2022/12/06 08:26:02;;;;;;;12.80;6.33;;;;;;;8.14;100.00;94957.59;5091777;28;20255;-57
2022/12/06 08:28:30;;;;;;;10.27;5.90;;;;;;;8.38;100.00;94976.16;5091930;28;20676;-59
2022/12/06 08:30:56;;;;;;;16.07;6.60;;;;;;;8.50;100.00;94992.19;5091464;28;20245;-58
2022/12/06 08:33:21;;;;;;;15.30;5.83;;;;;;;8.55;100.00;95015.47;5092012;28;20214;-58
2022/12/06 08:35:48;;;;;;;11.67;5.33;;;;;;;8.58;100.00;95015.25;5092068;28;20303;-57
2022/12/06 08:38:14;;;;;;;11.40;5.47;;;;;;;8.51;100.00;94998.84;5091977;28;20361;-57
2022/12/06 08:40:39;;;;;;;8.77;4.50;;;;;;;8.32;100.00;95006.97;5091895;28;20765;-59
2022/12/06 08:43:05;;;;;;;10.87;4.80;;;;;;;8.37;100.00;94999.84;5090749;28;20188;-58
2022/12/06 08:45:30;;;;;;;10.77;5.80;;;;;;;8.33;100.00;94993.38;5091455;28;20663;-59
2022/12/06 08:47:56;;;;;;;8.33;4.83;;;;;;;8.52;100.00;95008.91;5091697;28;20188;-57
2022/12/06 08:50:21;;;;;;;6.83;4.57;;;;;;;8.50;100.00;94956.72;5091786;28;20231;-57
2022/12/06 08:52:47;;;;;;;7.87;4.83;;;;;;;8.50;100.00;95004.84;5091674;28;20215;-57
2022/12/06 08:55:12;;;;;;;10.07;5.43;;;;;;;8.55;100.00;95020.53;5091955;28;20564;-58
2022/12/06 08:57:37;;;;;;;7.17;5.00;;;;;;;8.51;100.00;94981.13;5091528;28;20192;-60
2022/12/06 09:00:05;;;;;;;7.67;5.00;;;;;;;8.56;100.00;94991.75;5091849;28;20207;-59
2022/12/06 09:02:30;;;;;;;10.33;4.70;;;;;;;8.70;100.00;94991.56;5090915;28;20192;-56
2022/12/06 09:04:55;;;;;;;7.50;5.33;;;;;;;8.69;100.00;95048.22;5091333;28;20219;-57
2022/12/06 09:07:22;;;;;;;9.97;5.63;;;;;;;8.84;100.00;95029.41;5091296;28;20181;-59
2022/12/06 09:09:47;;;;;;;8.13;5.23;;;;;;;8.65;100.00;95034.16;5091296;28;20212;-57
2022/12/06 09:12:13;;;;;;;12.57;5.37;;;;;;;8.64;100.00;95012.28;5091093;28;20184;-59
2022/12/06 09:14:39;;;;;;;11.73;5.57;;;;;;;8.77;100.00;95020.59;5091219;28;20295;-56
2022/12/06 09:17:05;;;;;;;9.23;5.07;;;;;;;8.62;100.00;94973.56;5091294;28;20184;-56
2022/12/06 09:19:30;;;;;;;12.20;5.50;;;;;;;8.51;100.00;94948.19;5091153;28;20216;-58
2022/12/06 09:21:56;;;;;;;8.27;4.77;;;;;;;8.55;100.00;94968.13;5091254;28;20572;-62
2022/12/06 09:24:21;;;;;;;9.83;5.33;;;;;;;8.76;100.00;94988.59;5091213;28;20207;-57
2022/12/06 09:26:47;;;;;;;11.60;5.73;;;;;;;8.79;100.00;94953.69;5073295;28;20266;-59
2022/12/06 09:29:14;;;;;;;7.93;4.80;;;;;;;8.91;100.00;94967.19;5091069;28;20261;-57
2022/12/06 09:31:39;;;;;;;10.43;5.23;;;;;;;8.75;100.00;94967.50;5091199;28;20645;-58
2022/12/06 09:34:07;;;;;;;11.50;6.00;;;;;;;8.90;100.00;94930.91;5091088;28;20268;-58
2022/12/06 09:36:35;;;;;;;7.83;5.40;;;;;;;8.96;100.00;94915.25;5090785;28;20183;-60
2022/12/06 09:39:09;;;;;;;12.07;5.47;;;;;;;9.01;100.00;94942.78;5090878;28;20180;-58
2022/12/06 09:41:53;;;;;;;13.73;6.47;;;;;;;9.23;100.00;94937.75;5091125;28;20184;-58
2022/12/06 09:44:58;;;;;;;7.77;5.83;;;;;;;8.98;100.00;94950.63;5090898;28;20313;-56
2022/12/06 09:47:38;;;;;;;9.80;5.37;;;;;;;9.03;100.00;94895.31;5039158;28;20259;-57
2022/12/06 09:50:15;;;;;;;16.07;7.07;;;;;;;9.13;100.00;94944.44;5091175;28;20211;-58
2022/12/06 09:53:08;;;;;;;10.37;5.27;;;;;;;9.12;100.00;94952.94;5090793;28;20210;-58
2022/12/06 09:55:39;;;;;;;8.03;5.57;;;;;;;9.17;100.00;94915.38;5094421;28;20200;-57
2022/12/06 09:58:45;;;;;;;11.60;6.47;;;;;;;9.07;100.00;94960.09;5094343;28;20208;-56
2022/12/06 10:01:30;;;;;;;13.90;6.07;;;;;;;9.08;100.00;94900.84;5075558;28;20191;-60
2022/12/06 10:03:59;;;;;;;11.70;6.43;;;;;;;9.31;100.00;94921.00;5094233;28;20180;-56
2022/12/06 10:06:37;;;;;;;10.37;5.93;;;;;;;9.40;100.00;94906.00;5094325;28;20349;-58
2022/12/06 10:09:06;;;;;;;9.50;5.77;;;;;;;9.51;100.00;94956.75;5094138;28;20244;-58
2022/12/06 10:11:56;;;;;;;12.00;6.47;;;;;;;9.40;100.00;94941.53;5093555;28;20551;-58
2022/12/06 10:14:48;;;;;;;13.10;5.90;;;;;;;9.55;100.00;94953.88;5094126;28;20208;-56
2022/12/06 10:17:45;;;;;;;12.33;5.60;;;;;;;9.53;100.00;94976.03;5055296;28;20199;-57
2022/12/06 10:20:18;;;;;;;12.67;5.90;;;;;;;9.33;100.00;94926.78;5094106;28;20204;-56
2022/12/06 10:23:20;;;;;;;8.90;5.27;;;;;;;9.35;100.00;94913.19;5094046;28;20223;-56
2022/12/06 10:26:05;;;;;;;8.67;4.90;;;;;;;9.27;100.00;94923.91;5075699;28;20271;-56
2022/12/06 10:28:42;;;;;;;13.67;5.93;;;;;;;9.45;100.00;94889.53;5094130;28;20194;-58
2022/12/06 10:31:15;;;;;;;11.10;5.20;;;;;;;9.54;100.00;94924.34;5093954;28;20217;-56
2022/12/06 10:33:40;;;;;;;6.77;4.50;;;;;;;9.61;100.00;94933.13;5093825;28;20180;-57
2022/12/06 10:36:08;;;;;;;7.77;4.53;;;;;;;9.62;100.00;94949.94;5093600;28;20642;-57
2022/12/06 10:38:59;;;;;;;11.63;4.97;;;;;;;9.54;100.00;94908.31;5093297;28;20188;-58
2022/12/06 10:41:32;;;;;;;7.80;5.40;;;;;;;9.69;100.00;94895.25;5093697;28;20184;-58
2022/12/06 10:44:16;;;;;;;7.90;4.87;;;;;;;9.65;100.00;94878.66;5093382;28;20198;-57
2022/12/06 10:47:02;;;;;;;8.97;5.60;;;;;;;9.70;100.00;94922.25;5093505;28;20210;-56
2022/12/06 10:49:46;;;;;;;10.63;5.43;;;;;;;9.69;100.00;94961.25;5093625;28;20216;-56
2022/12/06 10:52:21;;;;;;;10.77;5.83;;;;;;;9.66;100.00;94923.41;5093177;28;20637;-56
2022/12/06 10:55:08;;;;;;;11.43;6.43;;;;;;;9.54;100.00;94893.06;5092890;28;20300;-56
2022/12/06 10:57:55;;;;;;;15.53;6.27;;;;;;;10.08;100.00;94866.72;5093254;28;20233;-57
2022/12/06 11:00:31;;;;;;;9.87;5.60;;;;;;;10.51;100.00;94959.91;5093223;28;20247;-59
2022/12/06 11:03:20;;;;;;;12.60;6.97;;;;;;;10.83;100.00;94975.94;5093402;28;20211;-56
2022/12/06 11:05:53;;;;;;;13.73;6.63;;;;;;;11.06;100.00;94992.72;5092256;28;20215;-58
2022/12/06 11:08:28;;;;;;;14.70;7.03;;;;;;;11.02;100.00;94995.63;5093142;28;20649;-58
2022/12/06 11:10:55;;;;;;;12.87;6.47;;;;;;;11.23;100.00;94966.66;5075044;28;20226;-57
2022/12/06 11:13:52;;;;;;;15.53;7.80;;;;;;;11.34;100.00;94948.78;5093115;28;20277;-58
2022/12/06 11:16:25;;;;;;;14.73;7.20;;;;;;;11.84;100.00;94967.50;5092761;28;20208;-58
2022/12/06 11:18:55;;;;;;;15.20;7.17;;;;;;;11.94;100.00;94996.34;5092599;28;20174;-56
2022/12/06 11:21:38;;;;;;;9.00;6.17;;;;;;;11.55;100.00;95005.56;5092427;28;20222;-57
2022/12/06 11:24:14;;;;;;;10.13;5.73;;;;;;;11.38;100.00;94960.34;5092463;28;20187;-57
2022/12/06 11:26:50;;;;;;;11.70;6.77;;;;;;;11.33;100.00;94916.63;5092420;28;20307;-56
2022/12/06 11:29:17;;;;;;;12.83;5.50;;;;;;;11.13;100.00;94932.75;5092799;28;20224;-56
2022/12/06 11:31:49;;;;;;;98.37;53.80;;;;;;;11.25;100.00;94958.94;5092983;28;20191;-55
2022/12/06 11:34:21;;;;;;;;;;;;;;;11.35;100.00;94919.06;5093487;28;20232;-58
2022/12/06 11:36:48;;;;;;;;;;;;;;;11.59;100.00;94967.94;5093258;28;19938;-56
2022/12/06 11:39:14;;;;;;;;;;;;;;;11.80;100.00;94971.25;5075047;28;19964;-56
2022/12/06 11:41:42;;;;;;;;;;;;;;;11.94;100.00;94975.19;5093120;28;19941;-60
2022/12/06 11:44:11;;;;;;;;;;;;;;;12.39;100.00;94981.44;5093116;28;20048;-58
2022/12/06 11:46:38;;;;;;;;;;;;;;;12.40;100.00;95046.78;5093254;28;19951;-58
2022/12/06 11:49:13;;;;;;;;;;;;;;;11.84;100.00;94992.19;5092906;28;19956;-57
2022/12/06 11:51:38;;;;;;;;;;;;;;;12.05;100.00;94975.88;5093334;28;19947;-59
2022/12/06 11:54:04;;;;;;;;;;;;;;;12.01;100.00;94978.81;5093190;28;19981;-56
2022/12/06 11:56:34;;;;;;;;;;;;;;;11.57;100.00;94955.31;5092876;28;19916;-54
2022/12/06 11:59:05;;;;;;;;;;;;;;;11.44;100.00;94919.09;5074302;28;19920;-58
2022/12/06 12:01:57;;;;;;;;;;;;;;;11.30;100.00;94855.81;5093240;28;19920;-59
2022/12/06 12:04:22;;;;;;;;;;;;;;;11.52;100.00;94853.06;5087950;28;19921;-59
2022/12/06 12:06:50;;;;;;;;;;;;;;;11.63;100.00;94859.78;5092955;28;19920;-56
2022/12/06 12:09:17;;;;;;;;;;;;;;;11.53;100.00;94884.44;5092803;28;20349;-56
2022/12/06 12:11:43;;;;;;;;;;;;;;;11.36;100.00;94910.47;5092569;28;19920;-58